Hovedside
METAR-TAF:

METAR-TAF

Lufthavner :

Västerås, Sverige

Västerås lufthavn

breddegrad: 59-35N, lengdegrad: 016-38E, høyde over havet: 6 m

Gjeldene værobservasjon

Denne rapporten ble laget for 34 minutter siden, klokken 09:50 UTC
Vind 12 kt fra Sørvest med vindkast opp mot 23 kt, skiftende mellom Sør-sørvest og Vest
Temperatur 17°C
Luftfuktighet 52%
Trykk 994 hPa
Sikt 10 km eller mer
Spredte skyer i en høyde av 4000 ft

METAR: ESOW 250950Z 23012G23KT 200V270 9999 SCT040 17/07 Q0994

Tid: 12:24 (10:24 UTC)


TAF: fraværende

Værobservasjoner og værvarsel for over 4000 flyplasser (METAR- og TAF-rapporter).

Tilgjengelige stasjoner er representert av de røde og gule prikkene på kartet.

Hold musepekeren over prikken for å se navnet på stasjonen.

Klikk så for å se værobservasjoner og -varsler.

For å forandre kartet kan du klikke på den grønne knappen med svart kryss for å zoome inn, på den grønne knappen med strek for å zoome ut, eller på de grønne pilene for å se tilstøtende kart.


METAR-TAF: